Time;durP1;ratioP1;P1;durP2;ratioP2;P2;SDS_P1;SDS_P2;PMS_P1;PMS_P2;Temp;Humidity;BMP_temperature;BMP_pressure;BME280_temperature;BME280_humidity;BME280_pressure;Samples;Min_cycle;Max_cycle;Signal;HPM_P1;HPM_P2
2021/09/06 00:01:46;;;;;;;11.07;5.57;;;;;;;11.94;100.00;94339.81;5035773;28;20200;-77
2021/09/06 00:04:13;;;;;;;11.80;5.60;;;;;;;12.10;100.00;94336.88;5036144;28;20204;-76
2021/09/06 00:06:41;;;;;;;9.00;5.10;;;;;;;12.04;100.00;94342.91;5035741;28;20199;-77
2021/09/06 00:09:09;;;;;;;9.97;5.13;;;;;;;12.01;100.00;94343.28;5035821;28;20239;-77
2021/09/06 00:11:35;;;;;;;9.50;5.23;;;;;;;11.99;100.00;94340.03;5035480;28;20670;-77
2021/09/06 00:14:02;;;;;;;11.90;5.43;;;;;;;11.99;100.00;94334.81;5035186;28;20439;-76
2021/09/06 00:16:28;;;;;;;9.30;5.23;;;;;;;11.99;100.00;94335.63;5035491;28;20555;-77
2021/09/06 00:18:55;;;;;;;8.13;4.93;;;;;;;12.02;100.00;94324.78;5035339;28;20239;-77
2021/09/06 00:21:21;;;;;;;10.60;5.47;;;;;;;12.00;100.00;94331.19;5035677;28;20204;-77
2021/09/06 00:23:48;;;;;;;10.93;5.70;;;;;;;11.92;100.00;94332.16;5035476;28;20589;-76
2021/09/06 00:26:16;;;;;;;13.57;5.77;;;;;;;11.90;100.00;94328.91;5034876;28;20207;-77
2021/09/06 00:28:42;;;;;;;9.27;5.30;;;;;;;11.85;100.00;94328.69;5035443;28;20207;-76
2021/09/06 00:31:10;;;;;;;11.50;5.73;;;;;;;11.80;100.00;94329.25;5035240;28;20563;-76
2021/09/06 00:33:37;;;;;;;11.17;5.27;;;;;;;11.75;100.00;94333.47;5035413;28;20196;-79
2021/09/06 00:36:04;;;;;;;12.53;5.37;;;;;;;11.73;100.00;94325.81;5035129;28;20232;-77
2021/09/06 00:38:31;;;;;;;12.47;5.47;;;;;;;11.73;100.00;94331.06;5035028;28;20655;-79
2021/09/06 00:40:57;;;;;;;10.53;4.80;;;;;;;11.70;100.00;94335.88;5035240;28;20223;-78
2021/09/06 00:43:25;;;;;;;10.47;5.63;;;;;;;11.69;100.00;94336.84;5034910;28;20563;-78
2021/09/06 00:45:52;;;;;;;10.50;5.83;;;;;;;11.72;100.00;94339.88;5055019;28;20592;-78
2021/09/06 00:48:18;;;;;;;10.63;5.63;;;;;;;11.69;100.00;94340.28;5075114;28;20211;-77
2021/09/06 00:50:45;;;;;;;8.77;5.20;;;;;;;11.69;100.00;94340.28;5075067;28;20260;-77
2021/09/06 00:53:12;;;;;;;12.60;5.57;;;;;;;11.66;100.00;94335.44;5074947;28;20202;-76
2021/09/06 00:55:39;;;;;;;9.30;4.97;;;;;;;11.67;100.00;94337.03;5074568;28;20712;-78
2021/09/06 00:58:09;;;;;;;11.83;5.57;;;;;;;11.75;100.00;94344.75;5074705;28;20203;-77
2021/09/06 01:00:37;;;;;;;9.93;6.18;;;;;;;11.72;100.00;94345.13;5073444;28;20453;-76
2021/09/06 01:03:03;;;;;;;9.17;5.70;;;;;;;11.63;100.00;94341.84;5074994;28;20195;-76
2021/09/06 01:05:31;;;;;;;9.47;5.80;;;;;;;11.65;100.00;94347.69;5074720;28;20199;-77
2021/09/06 01:08:00;;;;;;;12.53;5.43;;;;;;;11.62;100.00;94336.81;5074493;28;20195;-77
2021/09/06 01:10:27;;;;;;;11.43;5.77;;;;;;;11.57;100.00;94341.81;5074467;28;20195;-76
2021/09/06 01:12:53;;;;;;;9.23;5.43;;;;;;;11.52;100.00;94341.59;5074209;28;20202;-76
2021/09/06 01:15:20;;;;;;;11.13;5.40;;;;;;;11.45;100.00;94334.50;5074509;28;20554;-76
2021/09/06 01:17:48;;;;;;;11.40;5.07;;;;;;;11.50;100.00;94340.97;5074264;28;20605;-76
2021/09/06 01:20:17;;;;;;;14.13;5.80;;;;;;;11.56;100.00;94335.00;5074555;28;20199;-77
2021/09/06 01:22:43;;;;;;;9.47;5.67;;;;;;;11.57;100.00;94336.59;5074220;28;20210;-78
2021/09/06 01:25:14;;;;;;;13.77;6.17;;;;;;;11.52;100.00;94339.78;5073955;28;20207;-78
2021/09/06 01:27:41;;;;;;;13.70;6.20;;;;;;;11.55;100.00;94339.41;5074302;28;20290;-77
2021/09/06 01:30:11;;;;;;;13.07;5.87;;;;;;;11.52;100.00;94338.97;5073934;28;20206;-77
2021/09/06 01:32:42;;;;;;;10.80;5.87;;;;;;;11.47;100.00;94337.75;5074167;28;20207;-78
2021/09/06 01:35:10;;;;;;;10.70;6.10;;;;;;;11.54;100.00;94342.19;5073927;28;20218;-77
2021/09/06 01:37:37;;;;;;;10.03;5.93;;;;;;;11.56;100.00;94340.22;5072894;28;20580;-78
2021/09/06 01:40:05;;;;;;;10.80;6.60;;;;;;;11.52;100.00;94341.59;5073675;28;20203;-78
2021/09/06 01:42:32;;;;;;;12.87;6.03;;;;;;;11.44;100.00;94338.13;5074047;28;20573;-76
2021/09/06 01:45:01;;;;;;;11.17;6.80;;;;;;;11.53;100.00;94338.00;5073931;28;20246;-77
2021/09/06 01:47:28;;;;;;;12.57;6.90;;;;;;;11.63;100.00;94341.06;5073908;28;20223;-77
2021/09/06 01:49:55;;;;;;;12.00;5.80;;;;;;;11.61;100.00;94343.06;5072996;28;20210;-77
2021/09/06 01:52:22;;;;;;;12.40;6.10;;;;;;;11.58;100.00;94343.44;5073751;28;20201;-77
2021/09/06 01:54:49;;;;;;;11.60;6.10;;;;;;;11.53;100.00;94340.59;5073812;28;20226;-77
2021/09/06 01:57:18;;;;;;;11.83;6.07;;;;;;;11.55;100.00;94338.59;5072548;28;20199;-76
2021/09/06 01:59:44;;;;;;;11.83;6.27;;;;;;;11.56;100.00;94345.44;5073756;28;20202;-78
2021/09/06 02:02:13;;;;;;;10.07;6.40;;;;;;;11.47;100.00;94342.16;5073651;28;20217;-77
2021/09/06 02:04:42;;;;;;;15.90;6.60;;;;;;;11.40;100.00;94347.34;5073377;28;20203;-77
2021/09/06 02:07:09;;;;;;;14.90;6.73;;;;;;;11.55;100.00;94349.06;5073310;28;20661;-77
2021/09/06 02:09:36;;;;;;;10.73;6.20;;;;;;;11.59;100.00;94350.28;5073588;28;20534;-77
2021/09/06 02:12:06;;;;;;;14.40;6.40;;;;;;;11.60;100.00;94355.31;5073407;28;20198;-77
2021/09/06 02:14:40;;;;;;;11.13;6.70;;;;;;;11.53;100.00;94351.06;5073449;28;20289;-78
2021/09/06 02:17:06;;;;;;;13.57;6.37;;;;;;;11.53;100.00;94351.06;5072857;28;20204;-76
2021/09/06 02:19:37;;;;;;;14.07;6.57;;;;;;;11.46;100.00;94348.41;5073092;28;20202;-77
2021/09/06 02:22:04;;;;;;;12.90;6.50;;;;;;;11.37;100.00;94346.91;5073299;28;20202;-78
2021/09/06 02:24:31;;;;;;;11.20;6.13;;;;;;;11.27;100.00;94352.47;5073397;28;20277;-77
2021/09/06 02:26:57;;;;;;;10.77;6.47;;;;;;;11.23;100.00;94348.66;5072672;28;20202;-78
2021/09/06 02:29:24;;;;;;;10.80;6.93;;;;;;;11.18;100.00;94348.41;5072609;28;20434;-77
2021/09/06 02:31:50;;;;;;;11.10;7.00;;;;;;;11.20;100.00;94346.41;5073255;28;20198;-77
2021/09/06 02:34:17;;;;;;;15.60;7.50;;;;;;;11.26;100.00;94348.28;5073145;28;20195;-77
2021/09/06 02:36:47;;;;;;;11.97;7.50;;;;;;;11.28;100.00;94348.88;5072511;28;20673;-78
2021/09/06 02:39:14;;;;;;;16.83;7.73;;;;;;;11.28;100.00;94349.69;5072866;28;20198;-78
2021/09/06 02:41:40;;;;;;;15.47;7.27;;;;;;;11.31;100.00;94338.03;5073027;28;20206;-77
2021/09/06 02:44:07;;;;;;;11.53;6.43;;;;;;;11.24;100.00;94347.63;5072666;28;20225;-77
2021/09/06 02:46:33;;;;;;;12.27;7.67;;;;;;;11.25;100.00;94354.47;5072752;28;20245;-78
2021/09/06 02:48:59;;;;;;;16.50;7.00;;;;;;;11.24;100.00;94355.47;5072541;28;20205;-77
2021/09/06 02:51:29;;;;;;;15.90;7.00;;;;;;;11.26;100.00;94348.28;5072952;28;20210;-78
2021/09/06 02:53:56;;;;;;;13.33;7.10;;;;;;;11.25;100.00;94359.72;5073082;28;20237;-78
2021/09/06 02:56:25;;;;;;;12.03;7.03;;;;;;;11.17;100.00;94357.22;5072432;28;20230;-77
2021/09/06 02:58:53;;;;;;;14.30;8.07;;;;;;;11.20;100.00;94356.84;5072890;28;20199;-78
2021/09/06 03:01:22;;;;;;;14.23;7.60;;;;;;;11.11;100.00;94353.59;5072599;28;20207;-79
2021/09/06 03:03:48;;;;;;;12.20;7.37;;;;;;;11.09;100.00;94355.56;5072378;28;20653;-77
2021/09/06 03:06:15;;;;;;;12.47;7.70;;;;;;;10.95;100.00;94354.66;5072508;28;20210;-77
2021/09/06 03:08:41;;;;;;;16.23;7.53;;;;;;;10.77;100.00;94356.91;5072792;28;20203;-77
2021/09/06 03:11:09;;;;;;;15.13;7.47;;;;;;;10.57;100.00;94357.50;5072792;28;20205;-78
2021/09/06 03:13:36;;;;;;;17.93;7.23;;;;;;;10.49;100.00;94355.03;5072716;28;20206;-77
2021/09/06 03:16:02;;;;;;;13.38;7.85;;;;;;;10.39;100.00;94360.53;5072359;28;20458;-77
2021/09/06 03:18:29;;;;;;;11.23;7.33;;;;;;;10.24;100.00;94357.13;5072451;28;20205;-75
2021/09/06 03:20:55;;;;;;;15.83;7.83;;;;;;;10.31;100.00;94351.00;5072604;28;20209;-77
2021/09/06 03:23:24;;;;;;;13.40;7.57;;;;;;;10.29;100.00;94354.78;5072581;28;20210;-77
2021/09/06 03:25:51;;;;;;;12.53;7.50;;;;;;;10.13;100.00;94350.59;5072400;28;20211;-77
2021/09/06 03:28:18;;;;;;;12.07;7.53;;;;;;;10.03;100.00;94355.31;5073019;28;20281;-78
2021/09/06 03:30:45;;;;;;;13.10;8.33;;;;;;;10.02;100.00;94351.88;5073900;28;20203;-78
2021/09/06 03:33:14;;;;;;;15.33;8.00;;;;;;;9.99;100.00;94353.06;5073025;28;20201;-78
2021/09/06 03:35:43;;;;;;;13.43;8.03;;;;;;;10.21;100.00;94358.31;5072452;28;20226;-78
2021/09/06 03:38:10;;;;;;;19.00;9.97;;;;;;;10.22;100.00;94349.47;5072216;28;20199;-79
2021/09/06 03:40:37;;;;;;;18.83;10.20;;;;;;;10.42;100.00;94354.16;5072391;28;20613;-78
2021/09/06 03:43:06;;;;;;;14.13;9.43;;;;;;;10.44;100.00;94352.16;5072528;28;20199;-79
2021/09/06 03:45:35;;;;;;;16.83;9.07;;;;;;;10.36;100.00;94346.06;5072057;28;20227;-78
2021/09/06 03:48:01;;;;;;;26.00;10.10;;;;;;;10.29;100.00;94350.38;5072451;28;20207;-77
2021/09/06 03:50:29;;;;;;;19.07;8.77;;;;;;;10.27;100.00;94343.72;5072314;28;20210;-77
2021/09/06 03:52:56;;;;;;;13.90;9.23;;;;;;;10.11;100.00;94342.94;5072141;28;20600;-77
2021/09/06 03:55:22;;;;;;;16.47;9.90;;;;;;;10.10;100.00;94346.53;5072026;28;20199;-77
2021/09/06 03:57:51;;;;;;;13.50;8.03;;;;;;;10.14;100.00;94346.97;5072621;28;20206;-77
2021/09/06 04:00:18;;;;;;;20.97;9.53;;;;;;;10.02;100.00;94353.66;5073322;28;20207;-77
2021/09/06 04:02:48;;;;;;;18.47;11.17;;;;;;;9.94;100.00;94350.19;5074488;28;20434;-77
2021/09/06 04:05:14;;;;;;;14.37;8.53;;;;;;;9.81;100.00;94347.41;5075766;28;20265;-77
2021/09/06 04:07:41;;;;;;;14.87;8.93;;;;;;;9.72;100.00;94353.69;5075892;28;20214;-78
2021/09/06 04:10:08;;;;;;;15.03;8.53;;;;;;;9.68;100.00;94357.66;5075686;28;20202;-78
2021/09/06 04:12:35;;;;;;;18.60;9.77;;;;;;;9.81;100.00;94353.44;5075438;28;20661;-77
2021/09/06 04:15:02;;;;;;;14.53;8.60;;;;;;;9.68;100.00;94355.06;5075673;28;20224;-77
2021/09/06 04:17:29;;;;;;;14.03;8.57;;;;;;;9.54;100.00;94349.66;5075190;28;20324;-78
2021/09/06 04:19:58;;;;;;;15.40;8.93;;;;;;;9.57;100.00;94357.09;5075360;28;20198;-77
2021/09/06 04:22:25;;;;;;;20.50;10.73;;;;;;;9.88;100.00;94360.53;5074625;28;20203;-77
2021/09/06 04:24:51;;;;;;;18.17;10.67;;;;;;;10.03;100.00;94363.13;5075493;28;20195;-77
2021/09/06 04:27:19;;;;;;;20.27;10.27;;;;;;;9.95;100.00;94361.41;5075510;28;20198;-78
2021/09/06 04:29:45;;;;;;;20.63;10.10;;;;;;;9.84;100.00;94357.44;5075497;28;20554;-77
2021/09/06 04:32:12;;;;;;;21.10;10.30;;;;;;;9.85;100.00;94364.28;5075206;28;20203;-77
2021/09/06 04:34:38;;;;;;;21.03;11.07;;;;;;;9.94;100.00;94373.66;5074872;28;20199;-78
2021/09/06 04:37:07;;;;;;;20.60;10.40;;;;;;;9.91;100.00;94374.00;5074948;28;20230;-78
2021/09/06 04:39:33;;;;;;;17.60;10.93;;;;;;;9.94;100.00;94381.47;5074919;28;20195;-77
2021/09/06 04:42:02;;;;;;;21.13;11.33;;;;;;;9.97;100.00;94381.09;5074885;28;20688;-77
2021/09/06 04:44:32;;;;;;;25.47;11.50;;;;;;;9.98;100.00;94380.13;5075107;28;20225;-77
2021/09/06 04:46:59;;;;;;;22.97;11.80;;;;;;;10.08;100.00;94373.81;5074823;28;20238;-77
2021/09/06 04:49:25;;;;;;;22.77;11.80;;;;;;;10.21;100.00;94379.19;5074643;28;20683;-77
2021/09/06 04:51:52;;;;;;;23.20;11.80;;;;;;;10.30;100.00;94380.69;5074820;28;20198;-77
2021/09/06 04:54:22;;;;;;;21.73;9.97;;;;;;;10.24;100.00;94378.84;5075059;28;20604;-77
2021/09/06 04:56:50;;;;;;;21.90;10.47;;;;;;;10.11;100.00;94384.69;5074332;28;20563;-77
2021/09/06 04:59:21;;;;;;;20.00;9.60;;;;;;;9.93;100.00;94387.69;5074737;28;20293;-77
2021/09/06 05:01:47;;;;;;;19.43;10.47;;;;;;;10.11;100.00;94383.91;5074705;28;20199;-77
2021/09/06 05:04:17;;;;;;;22.20;11.10;;;;;;;10.11;100.00;94383.91;5074569;28;20293;-78
2021/09/06 05:06:43;;;;;;;18.77;10.77;;;;;;;10.10;100.00;94392.69;5074382;28;20294;-77
2021/09/06 05:09:10;;;;;;;19.77;11.40;;;;;;;10.28;100.00;94393.13;5074689;28;20199;-77
2021/09/06 05:11:38;;;;;;;20.63;11.13;;;;;;;10.39;100.00;94396.28;5074209;28;20669;-76
2021/09/06 05:14:04;;;;;;;24.20;12.57;;;;;;;10.46;100.00;94391.94;5074318;28;20691;-77
2021/09/06 05:16:31;;;;;;;24.23;11.87;;;;;;;10.52;100.00;94399.88;5074117;28;20727;-79
2021/09/06 05:18:57;;;;;;;18.80;10.83;;;;;;;10.59;100.00;94392.09;5074533;28;20202;-78
2021/09/06 05:21:24;;;;;;;21.80;10.83;;;;;;;10.71;100.00;94395.03;5073972;28;20206;-77
2021/09/06 05:23:50;;;;;;;15.33;9.87;;;;;;;10.81;100.00;94400.75;5074249;28;20764;-77
2021/09/06 05:26:19;;;;;;;17.53;9.77;;;;;;;10.80;100.00;94409.56;5074356;28;20205;-78
2021/09/06 05:28:47;;;;;;;17.10;9.33;;;;;;;10.87;100.00;94404.41;5074151;28;20300;-77
2021/09/06 05:31:14;;;;;;;18.93;10.10;;;;;;;10.89;100.00;94413.69;5073883;28;20202;-77
2021/09/06 05:33:41;;;;;;;17.10;9.47;;;;;;;10.85;100.00;94409.81;5073945;28;20825;-78
2021/09/06 05:36:07;;;;;;;16.77;10.32;;;;;;;10.86;100.00;94408.03;5072977;28;20457;-77
2021/09/06 05:38:34;;;;;;;14.80;9.07;;;;;;;10.81;100.00;94416.41;5073984;28;20580;-77
2021/09/06 05:41:00;;;;;;;17.40;9.83;;;;;;;10.92;100.00;94409.88;5073689;28;20199;-77
2021/09/06 05:43:27;;;;;;;18.13;9.80;;;;;;;10.95;100.00;94421.78;5073955;28;20195;-77
2021/09/06 05:45:55;;;;;;;18.97;10.13;;;;;;;10.95;100.00;94419.97;5073729;28;20596;-78
2021/09/06 05:48:23;;;;;;;16.73;10.03;;;;;;;10.93;100.00;94421.97;5073385;28;20677;-77
2021/09/06 05:50:50;;;;;;;19.07;10.30;;;;;;;10.95;100.00;94422.56;5073940;28;20199;-77
2021/09/06 05:53:16;;;;;;;20.00;10.73;;;;;;;11.05;100.00;94427.50;5073829;28;20281;-77
2021/09/06 05:55:43;;;;;;;18.20;9.63;;;;;;;11.16;100.00;94424.38;5073502;28;20298;-78
2021/09/06 05:58:10;;;;;;;19.23;9.77;;;;;;;11.25;100.00;94422.44;5073299;28;20249;-77
2021/09/06 06:00:36;;;;;;;16.47;8.90;;;;;;;11.27;100.00;94430.91;5073658;28;20205;-77
2021/09/06 06:03:07;;;;;;;17.10;9.23;;;;;;;11.25;100.00;94432.91;5073388;28;20195;-78
2021/09/06 06:05:33;;;;;;;15.60;9.20;;;;;;;11.25;100.00;94430.28;5073135;28;20199;-78
2021/09/06 06:08:00;;;;;;;16.33;9.43;;;;;;;11.23;100.00;94429.66;5073440;28;20202;-78
2021/09/06 06:10:27;;;;;;;17.10;9.93;;;;;;;11.27;100.00;94436.94;5073119;28;20198;-76
2021/09/06 06:12:53;;;;;;;15.93;9.53;;;;;;;11.38;100.00;94437.44;5073182;28;20653;-77
2021/09/06 06:15:20;;;;;;;16.57;9.47;;;;;;;11.42;100.00;94443.91;5073448;28;20539;-77
2021/09/06 06:17:46;;;;;;;17.27;9.53;;;;;;;11.49;100.00;94439.53;5073177;28;20237;-77
2021/09/06 06:20:14;;;;;;;17.07;9.30;;;;;;;11.55;100.00;94438.75;5073139;28;20210;-77
2021/09/06 06:22:41;;;;;;;13.73;8.30;;;;;;;11.63;100.00;94441.25;5072475;28;20198;-78
2021/09/06 06:25:08;;;;;;;15.23;9.30;;;;;;;11.73;100.00;94440.13;5072461;28;20549;-78
2021/09/06 06:27:34;;;;;;;15.30;9.07;;;;;;;11.82;100.00;94445.00;5072720;28;20277;-77
2021/09/06 06:30:01;;;;;;;15.57;9.07;;;;;;;11.91;100.00;94435.22;5073260;28;20210;-78
2021/09/06 06:32:27;;;;;;;14.73;8.47;;;;;;;12.00;100.00;94435.88;5073206;28;20198;-77
2021/09/06 06:34:54;;;;;;;14.77;9.10;;;;;;;12.14;100.00;94437.56;5072700;28;20198;-77
2021/09/06 06:37:22;;;;;;;15.30;9.07;;;;;;;12.25;100.00;94438.81;5072946;28;20305;-77
2021/09/06 06:39:48;;;;;;;16.27;8.68;;;;;;;12.38;100.00;94445.94;5072876;28;20195;-78
2021/09/06 06:42:14;;;;;;;13.60;8.40;;;;;;;12.53;100.00;94441.38;5073161;28;20207;-77
2021/09/06 06:44:42;;;;;;;14.63;8.10;;;;;;;12.70;100.00;94441.03;5072691;28;20293;-77
2021/09/06 06:47:08;;;;;;;13.95;7.85;;;;;;;12.91;100.00;94440.88;5072869;28;20209;-76
2021/09/06 06:49:35;;;;;;;15.75;8.75;;;;;;;13.12;100.00;94437.31;5072896;28;20206;-76
2021/09/06 06:52:01;;;;;;;13.15;7.65;;;;;;;13.37;100.00;94447.22;5073060;28;20194;-76
2021/09/06 06:54:30;;;;;;;10.82;6.95;;;;;;;13.59;100.00;94445.22;5072532;28;20226;-77
2021/09/06 06:56:56;;;;;;;12.50;6.90;;;;;;;13.80;100.00;94435.53;5072706;28;20328;-77
2021/09/06 06:59:23;;;;;;;15.40;7.47;;;;;;;13.98;100.00;94445.41;5072614;28;20202;-78
2021/09/06 07:01:49;;;;;;;9.85;6.47;;;;;;;14.12;100.00;94436.50;5072841;28;20229;-78
2021/09/06 07:04:16;;;;;;;10.45;5.82;;;;;;;14.31;100.00;94442.69;5072661;28;20649;-78
2021/09/06 07:06:42;;;;;;;11.00;6.15;;;;;;;14.53;100.00;94439.78;5072032;28;20928;-77
2021/09/06 07:09:09;;;;;;;10.38;6.28;;;;;;;14.66;100.00;94442.38;5072591;28;20573;-78
2021/09/06 07:11:37;;;;;;;8.38;5.53;;;;;;;14.77;100.00;94443.53;5072737;28;20198;-78
2021/09/06 07:14:03;;;;;;;8.68;5.45;;;;;;;14.94;100.00;94443.88;5072389;28;20661;-77
2021/09/06 07:16:30;;;;;;;12.02;6.40;;;;;;;15.05;100.00;94445.81;5072399;28;20214;-78
2021/09/06 07:18:56;;;;;;;12.45;6.00;;;;;;;15.20;100.00;94447.38;5072426;28;20229;-76
2021/09/06 07:21:23;;;;;;;9.60;5.63;;;;;;;15.37;100.00;94445.84;5072367;28;20203;-79
2021/09/06 07:23:50;;;;;;;10.45;5.60;;;;;;;15.45;100.00;94448.19;5072397;28;20199;-78
2021/09/06 07:26:17;;;;;;;12.43;6.25;;;;;;;15.66;100.00;94446.22;5072289;28;20622;-77
2021/09/06 07:28:45;;;;;;;9.85;6.25;;;;;;;15.73;100.00;94452.22;5072615;28;20206;-78
2021/09/06 07:31:11;;;;;;;9.68;6.32;;;;;;;15.80;100.00;94447.75;5072737;28;20203;-78
2021/09/06 07:33:39;;;;;;;10.25;6.30;;;;;;;15.96;100.00;94453.50;5072390;28;20709;-78
2021/09/06 07:36:06;;;;;;;17.13;6.50;;;;;;;16.03;100.00;94455.03;5074584;28;20217;-78
2021/09/06 07:38:32;;;;;;;9.40;5.70;;;;;;;15.97;100.00;94455.91;5076583;28;20226;-78
2021/09/06 07:40:59;;;;;;;9.07;5.03;;;;;;;16.12;100.00;94467.91;5076366;28;20203;-78
2021/09/06 07:43:25;;;;;;;8.65;5.35;;;;;;;16.14;100.00;94461.44;5076245;28;20286;-79
2021/09/06 07:45:53;;;;;;;10.55;5.63;;;;;;;16.36;100.00;94474.19;5076005;28;20231;-78
2021/09/06 07:48:20;;;;;;;21.15;6.55;;;;;;;16.50;100.00;94465.09;5076109;28;20203;-77
2021/09/06 07:50:47;;;;;;;9.57;5.40;;;;;;;16.58;100.00;94467.44;5075833;28;20214;-77
2021/09/06 07:53:14;;;;;;;8.55;4.93;;;;;;;16.76;100.00;94477.16;5075765;28;20226;-79
2021/09/06 07:55:40;;;;;;;9.40;5.50;;;;;;;16.59;100.00;94473.53;5075928;28;20205;-78
2021/09/06 07:58:07;;;;;;;11.18;6.07;;;;;;;16.77;100.00;94478.78;5076016;28;20226;-80
2021/09/06 08:00:33;;;;;;;12.52;5.10;;;;;;;17.05;100.00;94481.94;5075878;28;20268;-79
2021/09/06 08:03:01;;;;;;;12.73;5.38;;;;;;;17.24;100.00;94486.13;5075918;28;20565;-77
2021/09/06 08:05:29;;;;;;;12.48;5.60;;;;;;;17.31;100.00;94488.69;5075718;28;20230;-77
2021/09/06 08:07:55;;;;;;;14.70;6.10;;;;;;;17.37;100.00;94485.97;5075713;28;20207;-78
2021/09/06 08:10:22;;;;;;;8.25;5.47;;;;;;;17.44;100.00;94491.13;5075695;28;20538;-77
2021/09/06 08:12:49;;;;;;;13.85;5.85;;;;;;;17.51;100.00;94485.75;5075444;28;20209;-78
2021/09/06 08:15:15;;;;;;;10.23;5.95;;;;;;;17.67;100.00;94487.75;5075163;28;20553;-78
2021/09/06 08:17:42;;;;;;;6.78;4.57;;;;;;;17.97;100.00;94489.56;5075438;28;20226;-79
2021/09/06 08:20:13;;;;;;;7.90;5.25;;;;;;;17.99;98.23;94492.78;5075737;28;20221;-79
2021/09/06 08:22:40;;;;;;;10.40;5.35;;;;;;;18.21;95.70;94489.56;5075093;28;20202;-78
2021/09/06 08:25:09;;;;;;;9.65;4.90;;;;;;;18.34;93.44;94497.25;5074720;28;20661;-80
2021/09/06 08:27:37;;;;;;;9.98;4.80;;;;;;;18.57;78.63;94493.78;5075082;28;20203;-76
2021/09/06 08:30:05;;;;;;;9.75;4.78;;;;;;;18.66;75.93;94491.59;5075398;28;20209;-77
2021/09/06 08:32:31;;;;;;;11.88;4.97;;;;;;;18.83;73.09;94497.78;5075218;28;20673;-77
2021/09/06 08:34:57;;;;;;;7.65;4.65;;;;;;;18.96;68.92;94490.63;5075289;28;20221;-77
2021/09/06 08:37:25;;;;;;;9.70;5.03;;;;;;;18.98;70.00;94501.78;5075194;28;20695;-77
2021/09/06 08:39:52;;;;;;;7.03;4.45;;;;;;;19.08;74.31;94504.63;5075166;28;20203;-78
2021/09/06 08:42:19;;;;;;;7.88;4.25;;;;;;;19.16;69.48;94512.19;5075079;28;20649;-77
2021/09/06 08:44:46;;;;;;;9.23;5.65;;;;;;;19.29;70.62;94511.13;5071693;28;20211;-77
2021/09/06 08:47:14;;;;;;;8.60;4.50;;;;;;;19.35;70.02;94509.34;5055599;28;20211;-77
2021/09/06 08:49:41;;;;;;;8.07;4.63;;;;;;;19.39;69.22;94507.84;5054963;28;20196;-76
2021/09/06 08:52:08;;;;;;;11.23;4.72;;;;;;;19.41;68.06;94514.50;5055029;28;20257;-77
2021/09/06 08:54:35;;;;;;;9.25;4.40;;;;;;;19.39;70.44;94510.50;5054922;28;20195;-77
2021/09/06 08:57:02;;;;;;;6.70;4.38;;;;;;;19.42;67.74;94515.34;5054720;28;20199;-77
2021/09/06 08:59:29;;;;;;;7.60;4.15;;;;;;;19.53;66.72;94508.34;5054507;28;20206;-77
2021/09/06 09:01:56;;;;;;;12.73;4.80;;;;;;;19.56;69.23;94516.63;5054843;28;20196;-76
2021/09/06 09:04:24;;;;;;;12.27;4.88;;;;;;;19.36;66.06;94526.88;5054742;28;20206;-76
2021/09/06 09:06:53;;;;;;;7.63;4.50;;;;;;;19.36;66.28;94522.34;5054734;28;20199;-76
2021/09/06 09:09:25;;;;;;;8.68;5.05;;;;;;;19.44;66.51;94526.47;5054666;28;20199;-77
2021/09/06 09:12:09;;;;;;;10.50;4.28;;;;;;;19.41;65.99;94519.00;5054058;28;20204;-78
2021/09/06 09:14:36;;;;;;;8.60;4.60;;;;;;;19.65;69.23;94518.88;5054662;28;20226;-78
2021/09/06 09:17:04;;;;;;;7.57;4.15;;;;;;;19.65;69.19;94526.84;5054430;28;20206;-77
2021/09/06 09:19:31;;;;;;;6.50;3.90;;;;;;;19.75;65.29;94529.69;5054271;28;20204;-78
2021/09/06 09:21:59;;;;;;;7.60;4.45;;;;;;;19.70;61.38;94526.94;5054254;28;20206;-78
2021/09/06 09:24:26;;;;;;;6.38;4.28;;;;;;;19.72;63.64;94522.22;5054127;28;20205;-78
2021/09/06 09:26:54;;;;;;;8.10;4.53;;;;;;;19.82;63.12;94527.72;5054357;28;20207;-76
2021/09/06 09:29:22;;;;;;;7.22;4.35;;;;;;;19.84;63.07;94527.47;5054141;28;20202;-76
2021/09/06 09:31:49;;;;;;;6.25;4.20;;;;;;;19.81;64.44;94522.66;5054010;28;20210;-76
2021/09/06 09:34:16;;;;;;;7.50;4.43;;;;;;;19.81;64.07;94528.75;5053979;28;20653;-77
2021/09/06 09:36:43;;;;;;;7.55;4.50;;;;;;;19.85;62.14;94535.19;5054101;28;20195;-76
2021/09/06 09:39:11;;;;;;;5.47;3.80;;;;;;;19.83;57.21;94531.16;5053838;28;20227;-75
2021/09/06 09:41:38;;;;;;;7.20;3.80;;;;;;;19.83;58.42;94526.66;5053978;28;20206;-79
2021/09/06 09:44:07;;;;;;;6.00;3.97;;;;;;;19.82;61.52;94530.38;5053931;28;20208;-78
2021/09/06 09:46:35;;;;;;;7.78;4.30;;;;;;;19.90;60.90;94527.31;5053698;28;20227;-77
2021/09/06 09:49:09;;;;;;;10.00;4.60;;;;;;;19.87;61.10;94517.19;5053779;28;20207;-79
2021/09/06 09:51:36;;;;;;;9.30;4.03;;;;;;;19.89;56.99;94515.09;5053684;28;20199;-76
2021/09/06 09:54:03;;;;;;;7.35;3.97;;;;;;;19.96;60.71;94521.03;5053633;28;20554;-77
2021/09/06 09:56:31;;;;;;;5.90;3.60;;;;;;;20.08;55.58;94526.25;5053800;28;20203;-76
2021/09/06 09:58:59;;;;;;;11.70;3.78;;;;;;;20.18;55.65;94522.97;5052639;28;20230;-76
2021/09/06 10:01:27;;;;;;;6.28;3.85;;;;;;;20.28;62.50;94523.16;5053492;28;20207;-76
2021/09/06 10:03:57;;;;;;;7.25;4.13;;;;;;;20.31;58.27;94511.25;5053448;28;20210;-76
2021/09/06 10:06:24;;;;;;;10.57;4.45;;;;;;;20.20;54.90;94528.88;5053396;28;20204;-76
2021/09/06 10:08:50;;;;;;;9.23;4.25;;;;;;;20.26;55.48;94521.78;5053358;28;20214;-77
2021/09/06 10:11:17;;;;;;;7.35;3.97;;;;;;;20.34;58.30;94516.84;5053161;28;20195;-77
2021/09/06 10:13:44;;;;;;;5.93;4.00;;;;;;;20.63;57.55;94513.31;5053360;28;20202;-76
2021/09/06 10:16:10;;;;;;;7.70;4.28;;;;;;;20.63;53.11;94502.69;5053276;28;20206;-75
2021/09/06 10:18:39;;;;;;;5.50;3.40;;;;;;;20.60;53.34;94508.44;5053119;28;20577;-76
2021/09/06 10:21:14;;;;;;;13.48;3.90;;;;;;;20.66;55.40;94513.63;5054363;28;20681;-75
2021/09/06 10:23:44;;;;;;;5.38;3.58;;;;;;;20.73;52.20;94510.00;5071827;28;20206;-75
2021/09/06 10:26:11;;;;;;;8.00;4.10;;;;;;;20.72;54.09;94513.69;5073182;28;20209;-76
2021/09/06 10:28:38;;;;;;;6.90;4.32;;;;;;;20.74;57.26;94504.44;5073047;28;20199;-76
2021/09/06 10:31:05;;;;;;;6.47;3.85;;;;;;;20.78;57.64;94504.75;5073212;28;20199;-75
2021/09/06 10:33:34;;;;;;;5.85;3.83;;;;;;;20.64;54.93;94504.31;5072993;28;20206;-78
2021/09/06 10:36:05;;;;;;;7.65;4.30;;;;;;;20.93;54.49;94499.63;5073248;28;20199;-78
2021/09/06 10:38:42;;;;;;;8.90;4.18;;;;;;;20.94;57.72;94500.44;5072991;28;20231;-77
2021/09/06 10:41:13;;;;;;;6.20;3.90;;;;;;;21.00;60.10;94500.25;5073093;28;20206;-77
2021/09/06 10:43:45;;;;;;;6.45;4.07;;;;;;;21.12;58.35;94494.03;5072551;28;20199;-78
2021/09/06 10:46:12;;;;;;;7.13;4.25;;;;;;;21.21;58.25;94492.50;5071929;28;20441;-77
2021/09/06 10:48:40;;;;;;;5.95;3.70;;;;;;;21.31;57.75;94497.94;5072938;28;20209;-77
2021/09/06 10:51:07;;;;;;;6.30;3.65;;;;;;;21.46;60.38;94491.97;5073047;28;20230;-76
2021/09/06 10:53:33;;;;;;;7.32;4.20;;;;;;;21.47;56.52;94492.75;5072882;28;20198;-77
2021/09/06 10:56:03;;;;;;;6.55;4.10;;;;;;;21.40;54.21;94493.78;5072651;28;20205;-77
2021/09/06 10:58:30;;;;;;;6.15;3.85;;;;;;;21.45;57.28;94498.34;5072857;28;20697;-76
2021/09/06 11:00:59;;;;;;;5.28;3.53;;;;;;;21.43;54.34;94495.94;5073085;28;20372;-76
2021/09/06 11:03:34;;;;;;;6.40;3.80;;;;;;;21.35;56.38;94493.75;5072855;28;20214;-76
2021/09/06 11:06:01;;;;;;;6.35;3.72;;;;;;;21.56;53.75;94493.97;5072821;28;20198;-76
2021/09/06 11:08:32;;;;;;;10.13;3.97;;;;;;;21.65;55.58;94497.78;5072704;28;20198;-77
2021/09/06 11:11:01;;;;;;;7.15;3.95;;;;;;;21.44;54.81;94497.53;5076486;28;20542;-77
2021/09/06 11:13:36;;;;;;;6.35;3.80;;;;;;;21.40;52.31;94495.63;5076623;28;20672;-77
2021/09/06 11:16:03;;;;;;;6.55;3.40;;;;;;;21.50;56.17;94497.63;5076801;28;20206;-77
2021/09/06 11:18:34;;;;;;;6.60;3.83;;;;;;;21.53;50.46;94505.09;5076676;28;20230;-77
2021/09/06 11:21:01;;;;;;;6.72;3.80;;;;;;;21.71;50.22;94496.75;5076524;28;20199;-77
2021/09/06 11:23:33;;;;;;;6.90;3.53;;;;;;;21.54;50.63;94502.19;5076463;28;20202;-76